Flight Track Log - Related Links

Times and Time Zones

All times are in EDT time to prevent confusion due to time zone crossing. See the EJA941 flight status page for this flight to view local times or setup timezone preferences in your user account.

Time Position Orientation Groundspeed Altitude Reporting Facility
EDT Latitude Longitude Course Direction KTS MPH feet Rate Location/Type
Fri 08:26:00 PM 36.0719 -120.4382 137° Southeast  Level Estimated
Fri 08:27:00 PM 35.9852 -120.3405 138° Southeast  Level Estimated
Fri 08:28:00 PM 35.8985 -120.2431 138° Southeast  Level Estimated
Fri 08:29:00 PM 35.8116 -120.1459 138° Southeast  Level Estimated
Fri 08:30:00 PM 35.7247 -120.0489 138° Southeast  Level Estimated
Fri 08:31:00 PM 35.6377 -119.9521 138° Southeast  Level Estimated
Fri 08:32:00 PM 35.5506 -119.8555 138° Southeast  Level Estimated
Fri 08:33:00 PM 35.4634 -119.7592 138° Southeast  Level Estimated
Fri 08:34:00 PM 35.3762 -119.6630 138° Southeast  Level Estimated
Fri 08:35:00 PM 35.2888 -119.5671 138° Southeast  Level Estimated
Fri 08:36:00 PM 35.2015 -119.4713 138° Southeast  Level Estimated
Fri 08:37:00 PM 35.1140 -119.3758 138° Southeast  Level Estimated
Fri 08:38:00 PM 35.0265 -119.2805 138° Southeast  Level Estimated
Fri 08:39:00 PM 34.9388 -119.1853 138° Southeast  Level Estimated
Fri 08:40:00 PM 34.8511 -119.0904 138° Southeast  Level Estimated
Fri 08:41:00 PM 34.7634 -118.9957 138° Southeast  Level Estimated
Fri 08:42:00 PM 34.6755 -118.9012 138° Southeast  Level Estimated
Fri 08:43:00 PM 34.5876 -118.8068 139° Southeast  Level Estimated
Fri 08:44:00 PM 34.4996 -118.7127 139° Southeast  Level Estimated
Fri 08:45:00 PM 34.4116 -118.6188 139° Southeast  Level Estimated
Fri 08:46:00 PM 34.3234 -118.5251 139° Southeast  Level Estimated
Fri 08:47:00 PM 34.2352 -118.4316 139° Southeast  Level Estimated
Fri 08:48:00 PM 34.1470 -118.3382 139° Southeast  Level Estimated
Fri 08:49:00 PM 34.0586 -118.2451 139° Southeast  Level Estimated
Fri 08:50:00 PM 33.9702 -118.1522 139° Southeast  Level Estimated
Fri 08:51:00 PM 33.8817 -118.0594 139° Southeast  Level Estimated
Fri 08:52:00 PM 33.7932 -117.9668 139° Southeast  Level Estimated
Fri 08:53:00 PM 33.7046 -117.8745 139° Southeast  Level Estimated
Fri 08:54:00 PM 33.6159 -117.7823 139° Southeast  Level Estimated
Fri 08:55:00 PM 33.5271 -117.6903 139° Southeast  Level Estimated
Fri 08:56:00 PM 33.4383 -117.5985 139° Southeast  Level Estimated
Fri 08:57:00 PM 33.3494 -117.5069 139° Southeast  Level Estimated
Fri 08:58:00 PM 33.2605 -117.4155 139° Southeast  Level Estimated
Fri 08:59:00 PM 33.1714 -117.3242 139° Southeast  Level Estimated
Fri 09:00:00 PM 33.1283 -117.2801 139° Southeast  Level Estimated
Fri 09:01:00 PM 33.1283 -117.2801 270° West  Level Estimated
Fri 09:02:00 PM 33.1283 -117.2801 270° West  Level Estimated
Fri 09:03:00 PM 33.1283 -117.2801 270° West  Level Estimated
Fri 09:04:00 PM 33.1283 -117.2801 270° West  Level Estimated
Fri 09:05:00 PM 33.1283 -117.2801 270° West  Level Estimated
Fri 09:06:00 PM 33.1283 -117.2801 270° West  Level Estimated
Fri 09:07:00 PM 33.1283 -117.2801 270° West  Level Estimated
Fri 09:08:00 PM 33.1283 -117.2801 270° West  Level Estimated
Fri 09:09:00 PM 33.1283 -117.2801 270° West  Level Estimated
Fri 09:10:00 PM 33.1283 -117.2801 270° West  Level Estimated
Fri 09:11:00 PM 33.1283 -117.2801 270° West  Level Estimated
Fri 09:12:00 PM 33.1283 -117.2801 270° West  Level Estimated
Fri 09:13:00 PM 33.1283 -117.2801 270° West  Level Estimated
Fri 09:14:00 PM 33.1283 -117.2801 270° West  Level Estimated
Fri 09:15:00 PM 33.1283 -117.2801 270° West  Level Estimated
Fri 09:16:00 PM 33.1283 -117.2801 270° West  Level Estimated
Fri 09:17:00 PM 33.1283 -117.2801 270° West  Level Estimated
Fri 09:18:00 PM 33.1283 -117.2801 270° West  Level Estimated
Fri 09:19:00 PM 33.1283 -117.2801 270° West  Level Estimated
Fri 09:20:00 PM 33.1283 -117.2801 270° West  Level Estimated
Fri 09:21:00 PM 33.1283 -117.2801 270° West  Level Estimated
Fri 09:22:00 PM 33.1283 -117.2801 270° West  Level Estimated
Fri 09:23:00 PM 33.1283 -117.2801 270° West  Level Estimated
Fri 09:24:00 PM 33.1283 -117.2801 270° West  Level Estimated
Fri 09:25:00 PM 33.1283 -117.2801 270° West  Level Estimated
Fri 09:26:00 PM 33.1283 -117.2801 270° West  Level Estimated
Fri 09:27:00 PM 33.1283 -117.2801 270° West  Level Estimated
Fri 09:28:00 PM 33.1283 -117.2801 270° West  Level Estimated
Fri 09:29:00 PM 33.1283 -117.2801 270° West  Level Estimated
Fri 09:30:00 PM 33.1283 -117.2801 270° West  Level Estimated
Fri 09:31:00 PM 33.1283 -117.2801 270° West  Level Estimated

Login

Don't have an account? Register now (free) for customized features, flight alerts, and more!